Time;durP1;ratioP1;P1;durP2;ratioP2;P2;SDS_P1;SDS_P2;PMS_P1;PMS_P2;Temp;Humidity;BMP_temperature;BMP_pressure;BME280_temperature;BME280_humidity;BME280_pressure;Samples;Min_cycle;Max_cycle;Signal;HPM_P1;HPM_P2
2022/09/26 00:01:48;;;;;;;;;1.75;1.75;;;;;16.68;53.04;100980.81;4883475;29;45298;-64
2022/09/26 00:04:21;;;;;;;;;1.75;1.75;;;;;16.68;52.70;100977.28;4880991;29;45488;-64
2022/09/26 00:06:47;;;;;;;;;1.50;1.50;;;;;16.71;52.80;100982.50;4897579;28;48336;-65
2022/09/26 00:09:14;;;;;;;;;2.00;2.00;;;;;16.71;52.80;100984.34;4883527;29;45390;-65
2022/09/26 00:11:40;;;;;;;;;2.00;2.00;;;;;16.70;53.04;100983.44;4883180;29;45287;-64
2022/09/26 00:14:09;;;;;;;;;1.00;1.00;;;;;16.69;53.04;100970.94;4892446;29;45390;-64
2022/09/26 00:16:35;;;;;;;;;3.00;0.00;;;;;16.68;53.27;100977.28;4883460;29;45627;-64
2022/09/26 00:19:00;;;;;;;;;1.25;1.25;;;;;16.64;52.86;100970.31;4883335;29;45458;-64
2022/09/26 00:21:29;;;;;;;;;0.75;0.75;;;;;16.60;53.28;100961.50;4883195;29;45406;-64
2022/09/26 00:23:54;;;;;;;;;1.75;1.00;;;;;16.47;53.15;100939.75;4881521;29;45573;-64
2022/09/26 00:26:23;;;;;;;;;2.00;0.75;;;;;16.65;53.18;100964.81;4883238;29;45359;-65
2022/09/26 00:28:48;;;;;;;;;1.25;1.25;;;;;16.61;53.35;100957.88;4882910;29;45287;-64
2022/09/26 00:31:17;;;;;;;;;2.00;2.00;;;;;16.61;53.39;100952.47;4897938;29;45783;-64
2022/09/26 00:33:42;;;;;;;;;1.00;1.00;;;;;16.52;53.37;100942.19;4881744;29;45936;-64
2022/09/26 00:36:08;;;;;;;;;2.00;2.00;;;;;16.59;53.42;100940.91;4871174;29;48308;-64
2022/09/26 00:38:34;;;;;;;;;2.00;1.25;;;;;16.58;53.49;100946.38;4880929;29;45448;-64
2022/09/26 00:41:00;;;;;;;;;2.00;2.00;;;;;16.55;53.27;100941.16;4883362;29;45561;-64
2022/09/26 00:43:38;;;;;;;;;1.25;1.25;;;;;16.55;53.66;100936.63;4882009;29;45550;-64
2022/09/26 00:46:43;;;;;;;;;1.50;1.00;;;;;16.52;53.48;100933.25;4883042;29;46275;-64
2022/09/26 00:49:17;;;;;;;;;1.00;1.00;;;;;16.49;53.34;100927.06;4874968;29;45628;-64
2022/09/26 00:51:51;;;;;;;;;1.00;1.00;;;;;16.43;53.60;100921.16;4905624;28;45428;-64
2022/09/26 00:54:18;;;;;;;;;0.75;0.75;;;;;16.47;53.33;100920.00;4880198;29;46065;-64
2022/09/26 00:56:49;;;;;;;;;2.50;1.00;;;;;16.46;53.29;100915.59;4897105;29;47068;-64
2022/09/26 00:59:26;;;;;;;;;1.00;1.00;;;;;16.53;53.39;100919.69;4882951;29;45659;-64
2022/09/26 01:01:54;;;;;;;;;2.25;1.50;;;;;16.52;53.19;100919.75;4883244;29;45351;-64
2022/09/26 01:04:21;;;;;;;;;2.75;2.00;;;;;16.48;53.09;100911.84;4880766;29;45490;-64
2022/09/26 01:06:48;;;;;;;;;2.00;1.00;;;;;16.48;53.24;100913.69;4883007;29;45363;-64
2022/09/26 01:09:13;;;;;;;;;1.50;1.00;;;;;16.48;53.22;100914.53;4886023;29;45319;-64
2022/09/26 01:11:41;;;;;;;;;1.75;1.75;;;;;16.44;53.19;100899.50;4886005;29;45343;-64
2022/09/26 01:14:09;;;;;;;;;1.75;1.75;;;;;16.44;53.27;100904.91;4885115;29;45568;-64
2022/09/26 01:16:37;;;;;;;;;1.00;1.00;;;;;16.44;53.31;100901.34;4886031;29;45403;-64
2022/09/26 01:19:26;;;;;;;;;1.00;1.00;;;;;16.46;53.21;100916.44;4900550;29;45860;-64
2022/09/26 01:22:42;;;;;;;;;1.25;0.75;;;;;16.46;53.00;100911.06;4884798;29;45473;-64
2022/09/26 01:25:26;;;;;;;;;1.00;1.00;;;;;16.44;53.02;100915.69;4898776;28;45763;-64
2022/09/26 01:28:05;;;;;;;;;1.50;0.75;;;;;16.39;53.29;100912.34;4891376;29;46188;-64
2022/09/26 01:30:50;;;;;;;;;3.00;1.00;;;;;16.42;53.53;100914.00;4878577;29;45465;-64
2022/09/26 01:33:26;;;;;;;;;3.00;3.00;;;;;16.37;53.73;100898.13;4885136;29;45362;-64
2022/09/26 01:36:06;;;;;;;;;2.00;2.00;;;;;16.42;53.08;100914.00;4889756;28;45967;-64
2022/09/26 01:39:06;;;;;;;;;1.00;1.00;;;;;16.40;53.18;100900.63;4883258;29;46223;-64
2022/09/26 01:42:15;;;;;;;;;1.00;1.00;;;;;16.40;53.17;100897.91;4900051;28;45491;-64
2022/09/26 01:44:49;;;;;;;;;1.00;1.00;;;;;16.37;53.58;100886.44;4885602;29;45555;-64
2022/09/26 01:47:19;;;;;;;;;1.75;0.00;;;;;16.37;53.45;100898.13;4885644;29;45435;-64
2022/09/26 01:49:53;;;;;;;;;1.00;1.00;;;;;16.36;53.12;100892.81;4885360;29;46196;-64
2022/09/26 01:52:30;;;;;;;;;1.00;1.00;;;;;16.32;53.54;100880.44;4883686;29;45324;-64
2022/09/26 01:55:20;;;;;;;;;2.00;2.00;;;;;16.32;53.45;100875.91;4885328;29;45391;-64
2022/09/26 01:58:02;;;;;;;;;1.25;1.25;;;;;16.25;53.31;100869.13;4884996;29;45547;-64
2022/09/26 02:00:29;;;;;;;;;0.25;0.25;;;;;16.20;53.29;100852.34;4899829;28;48251;-64
2022/09/26 02:02:56;;;;;;;;;1.00;1.00;;;;;16.32;53.07;100872.34;4898232;28;46296;-64
2022/09/26 02:05:41;;;;;;;;;1.75;0.75;;;;;16.23;53.20;100858.44;4885064;29;45363;-64
2022/09/26 02:08:16;;;;;;;;;1.00;1.00;;;;;16.25;53.10;100855.66;4877390;29;45392;-64
2022/09/26 02:10:54;;;;;;;;;1.00;1.00;;;;;16.27;53.15;100861.81;4883521;29;48097;-64
2022/09/26 02:13:28;;;;;;;;;0.50;0.50;;;;;16.25;53.05;100855.66;4878780;29;45764;-64
2022/09/26 02:16:00;;;;;;;;;1.50;1.50;;;;;16.20;52.78;100844.28;4903206;28;45433;-64
2022/09/26 02:18:32;;;;;;;;;1.00;1.00;;;;;16.25;52.95;100853.81;4891928;28;45505;-64
2022/09/26 02:21:02;;;;;;;;;0.00;0.00;;;;;16.26;52.86;100844.81;4872670;29;45451;-64
2022/09/26 02:23:28;;;;;;;;;0.25;0.25;;;;;16.17;52.88;100830.97;4882984;29;45764;-64
2022/09/26 02:25:53;;;;;;;;;1.00;1.00;;;;;16.23;52.83;100836.88;4899630;28;45533;-65
2022/09/26 02:28:20;;;;;;;;;0.50;0.00;;;;;16.24;52.98;100832.38;4884906;29;45503;-64
2022/09/26 02:30:48;;;;;;;;;1.00;1.00;;;;;16.23;52.82;100828.81;4883668;29;47506;-64
2022/09/26 02:33:14;;;;;;;;;1.00;1.00;;;;;16.20;52.94;100834.34;4883294;29;45560;-64
2022/09/26 02:35:54;;;;;;;;;2.25;1.00;;;;;16.09;52.84;100816.09;4878086;29;45384;-64
2022/09/26 02:38:22;;;;;;;;;2.00;0.50;;;;;16.12;53.28;100823.13;4879457;29;45453;-64
2022/09/26 02:41:12;;;;;;;;;1.00;1.00;;;;;16.10;53.39;100814.28;4883683;29;47658;-64
2022/09/26 02:44:07;;;;;;;;;1.00;1.00;;;;;16.08;53.06;100808.09;4883182;29;45494;-64
2022/09/26 02:46:38;;;;;;;;;1.00;1.00;;;;;16.11;53.07;100814.19;4883228;29;45608;-64
2022/09/26 02:49:10;;;;;;;;;0.75;0.75;;;;;16.10;53.27;100796.31;4884828;29;45666;-64
2022/09/26 02:51:49;;;;;;;;;1.00;1.00;;;;;16.07;53.04;100788.41;4884252;29;46253;-64
2022/09/26 02:54:27;;;;;;;;;1.25;1.00;;;;;16.02;52.88;100781.50;4895007;28;45736;-64
2022/09/26 02:57:03;;;;;;;;;1.00;1.00;;;;;16.00;53.26;100759.19;4884455;29;45409;-64
2022/09/26 02:59:40;;;;;;;;;1.00;1.00;;;;;16.02;53.10;100757.28;4883371;29;45718;-64
2022/09/26 03:02:12;;;;;;;;;1.00;1.00;;;;;16.07;52.98;100761.47;4884615;29;45326;-64
2022/09/26 03:04:47;;;;;;;;;1.00;1.00;;;;;16.07;53.05;100755.19;4882676;29;45303;-64
2022/09/26 03:07:19;;;;;;;;;0.25;0.25;;;;;16.03;53.14;100745.56;4884500;29;45382;-64
2022/09/26 03:09:47;;;;;;;;;0.25;0.25;;;;;16.03;53.04;100756.34;4884585;29;45613;-64
2022/09/26 03:12:13;;;;;;;;;1.50;0.50;;;;;15.97;53.03;100744.09;4883765;29;45271;-64
2022/09/26 03:14:41;;;;;;;;;1.25;0.00;;;;;15.96;53.05;100736.09;4882869;29;45307;-64
2022/09/26 03:17:08;;;;;;;;;1.00;1.00;;;;;15.98;52.93;100734.19;4884475;29;45388;-64
2022/09/26 03:19:44;;;;;;;;;1.50;0.75;;;;;15.98;53.38;100731.50;4884316;29;45684;-64
2022/09/26 03:22:09;;;;;;;;;1.00;1.00;;;;;15.94;53.46;100717.34;4884009;29;45588;-64
2022/09/26 03:24:35;;;;;;;;;0.00;0.00;;;;;15.96;53.44;100707.34;4882569;29;45312;-64
2022/09/26 03:27:03;;;;;;;;;0.50;0.50;;;;;15.98;53.27;100718.03;4884003;29;45335;-64
2022/09/26 03:29:31;;;;;;;;;0.00;0.00;;;;;15.94;53.14;100714.63;4883545;29;45403;-64
2022/09/26 03:31:56;;;;;;;;;1.00;0.00;;;;;15.96;53.30;100717.25;4883866;29;46263;-64
2022/09/26 03:34:21;;;;;;;;;0.50;0.50;;;;;15.95;53.27;100704.72;4882926;29;45704;-64
2022/09/26 03:36:47;;;;;;;;;1.50;0.25;;;;;15.95;53.12;100705.59;4882919;29;50952;-64
2022/09/26 03:39:12;;;;;;;;;1.00;1.00;;;;;15.96;53.34;100701.97;4884008;29;45807;-64
2022/09/26 03:41:38;;;;;;;;;1.00;1.00;;;;;15.95;53.42;100696.66;4883641;29;47230;-64
2022/09/26 03:44:03;;;;;;;;;2.75;1.50;;;;;15.92;53.50;100692.28;4882478;29;45525;-64
2022/09/26 03:46:29;;;;;;;;;2.00;2.00;;;;;15.96;53.43;100687.63;4883540;29;50861;-64
2022/09/26 03:48:54;;;;;;;;;1.75;0.25;;;;;15.96;53.53;100679.56;4883952;29;45740;-64
2022/09/26 03:51:19;;;;;;;;;1.00;1.00;;;;;15.96;53.98;100675.03;4883093;29;58288;-64
2022/09/26 03:53:49;;;;;;;;;1.50;1.50;;;;;15.95;54.09;100667.91;4881426;29;45279;-64
2022/09/26 03:56:17;;;;;;;;;1.00;1.00;;;;;15.90;53.79;100668.19;4881871;28;45407;-64
2022/09/26 03:58:43;;;;;;;;;2.50;1.25;;;;;15.91;54.09;100666.34;4883734;29;45442;-64
2022/09/26 04:01:15;;;;;;;;;1.00;1.00;;;;;15.89;53.91;100662.88;4898002;28;48155;-64
2022/09/26 04:03:42;;;;;;;;;0.00;0.00;;;;;15.88;54.30;100663.81;4882580;29;45617;-64
2022/09/26 04:06:08;;;;;;;;;2.75;1.00;;;;;15.87;54.16;100662.97;4883381;29;45486;-64
2022/09/26 04:08:39;;;;;;;;;1.25;1.25;;;;;15.85;53.81;100661.31;4883679;29;45336;-64
2022/09/26 04:11:08;;;;;;;;;1.75;1.00;;;;;15.86;54.13;100653.13;4882970;29;45391;-64
2022/09/26 04:13:33;;;;;;;;;1.00;1.00;;;;;15.87;54.31;100654.88;4881922;29;45414;-64
2022/09/26 04:16:00;;;;;;;;;0.50;0.50;;;;;15.87;54.10;100646.81;4883471;29;45389;-64
2022/09/26 04:18:26;;;;;;;;;0.25;0.00;;;;;15.86;54.09;100636.13;4883466;29;45477;-64
2022/09/26 04:20:59;;;;;;;;;0.75;0.75;;;;;15.83;54.36;100626.38;4883267;29;45327;-64
2022/09/26 04:23:29;;;;;;;;;1.00;1.00;;;;;15.83;54.39;100620.16;4880603;29;45641;-64
2022/09/26 04:25:54;;;;;;;;;1.00;1.00;;;;;15.78;54.42;100612.34;4883543;29;45362;-64
2022/09/26 04:28:19;;;;;;;;;0.50;0.50;;;;;15.80;54.17;100612.25;4881817;29;45452;-64
2022/09/26 04:30:45;;;;;;;;;1.50;1.00;;;;;15.77;54.19;100605.22;4883345;29;45473;-64
2022/09/26 04:33:11;;;;;;;;;2.00;0.75;;;;;15.80;53.84;100596.97;4896528;29;45569;-64
2022/09/26 04:35:36;;;;;;;;;2.00;1.00;;;;;15.79;53.55;100603.31;4876691;29;45383;-64
2022/09/26 04:38:03;;;;;;;;;2.00;0.75;;;;;15.75;53.52;100580.16;4881766;29;45477;-64
2022/09/26 04:40:29;;;;;;;;;0.25;0.25;;;;;15.79;53.62;100594.38;4870965;29;46015;-64
2022/09/26 04:42:54;;;;;;;;;1.00;1.00;;;;;15.78;53.66;100579.19;4886431;29;45368;-64
2022/09/26 04:45:20;;;;;;;;;2.00;2.00;;;;;15.79;53.55;100589.84;4886571;29;45389;-64
2022/09/26 04:47:45;;;;;;;;;1.00;1.00;;;;;15.81;53.60;100585.25;4885099;29;45304;-64
2022/09/26 04:50:10;;;;;;;;;1.25;1.25;;;;;15.75;53.73;100569.41;4886091;29;57011;-64
2022/09/26 04:52:35;;;;;;;;;1.00;1.00;;;;;15.76;53.46;100560.44;4886085;29;47961;-64
2022/09/26 04:55:02;;;;;;;;;1.00;1.00;;;;;15.81;53.76;100560.16;4886335;29;45409;-64
2022/09/26 04:57:28;;;;;;;;;1.00;1.00;;;;;15.78;53.53;100550.44;4884813;29;45268;-64
2022/09/26 04:59:53;;;;;;;;;1.00;1.00;;;;;15.73;53.51;100550.66;4873689;29;45321;-64
2022/09/26 05:02:19;;;;;;;;;1.00;1.00;;;;;15.72;53.60;100557.00;4886051;29;54062;-64
2022/09/26 05:04:47;;;;;;;;;2.00;0.00;;;;;15.74;53.57;100555.09;4885755;29;45685;-64
2022/09/26 05:07:13;;;;;;;;;0.00;0.00;;;;;15.74;53.46;100556.94;4884763;29;45540;-64
2022/09/26 05:09:38;;;;;;;;;1.00;0.00;;;;;15.75;53.16;100553.25;4873109;29;46488;-64
2022/09/26 05:12:04;;;;;;;;;1.00;1.00;;;;;15.74;53.30;100540.78;4885642;29;45729;-64
2022/09/26 05:14:29;;;;;;;;;0.25;0.25;;;;;15.74;53.44;100541.63;4884931;29;45430;-64
2022/09/26 05:16:54;;;;;;;;;1.75;0.00;;;;;15.69;53.41;100526.72;4884461;29;51191;-64
2022/09/26 05:19:20;;;;;;;;;3.00;1.50;;;;;15.72;53.48;100530.09;4885793;29;51235;-64
2022/09/26 05:21:45;;;;;;;;;0.00;0.00;;;;;15.69;53.84;100524.03;4885844;29;45358;-64
2022/09/26 05:26:54;;;;;;;;;2.00;1.00;;;;;15.63;53.85;100508.22;4883951;29;45292;-64
2022/09/26 05:29:20;;;;;;;;;2.00;1.00;;;;;15.60;54.02;100503.03;4884872;29;45295;-64
2022/09/26 05:31:46;;;;;;;;;3.00;1.50;;;;;15.59;54.15;100504.84;4883083;29;45635;-64
2022/09/26 05:34:12;;;;;;;;;1.00;1.00;;;;;15.57;54.03;100493.31;4885666;29;45339;-64
2022/09/26 05:36:38;;;;;;;;;1.75;1.75;;;;;15.53;54.26;100497.97;4880803;29;45593;-64
2022/09/26 05:40:55;;;;;;;;;2.00;1.00;;;;;15.51;54.36;100489.13;4881701;29;45875;-64
2022/09/26 05:41:52;;;;;;;;;1.25;1.25;;;;;15.50;54.46;100495.50;4883218;28;45670;-64
2022/09/26 05:44:18;;;;;;;;;3.00;1.75;;;;;15.47;54.47;100497.47;4884733;29;45450;-64
2022/09/26 05:46:44;;;;;;;;;2.00;0.75;;;;;15.46;54.40;100495.75;4885304;29;45543;-64
2022/09/26 05:49:10;;;;;;;;;2.00;1.00;;;;;15.40;54.25;100490.69;4885446;29;45279;-64
2022/09/26 05:51:36;;;;;;;;;1.50;1.50;;;;;15.46;54.75;100490.38;4882171;29;47104;-64
2022/09/26 05:54:02;;;;;;;;;0.75;0.75;;;;;15.44;54.78;100493.13;4883946;29;45335;-64
2022/09/26 05:56:27;;;;;;;;;2.75;1.75;;;;;15.41;54.58;100487.94;4884919;29;45307;-64
2022/09/26 05:58:53;;;;;;;;;1.00;1.00;;;;;15.43;54.47;100486.00;4882730;29;46303;-64
2022/09/26 06:01:19;;;;;;;;;1.00;1.00;;;;;15.43;54.54;100482.47;4882777;29;45497;-64
2022/09/26 06:03:45;;;;;;;;;1.75;1.00;;;;;15.44;54.80;100489.59;4884886;29;45498;-64
2022/09/26 06:06:14;;;;;;;;;2.00;2.00;;;;;15.42;54.55;100476.22;4884400;29;45594;-64
2022/09/26 06:08:40;;;;;;;;;1.00;1.00;;;;;15.42;54.76;100481.59;4884884;29;45472;-64
2022/09/26 06:11:12;;;;;;;;;1.00;1.00;;;;;15.48;54.78;100483.06;4883790;29;45556;-64
2022/09/26 06:13:39;;;;;;;;;3.75;3.00;;;;;15.45;54.93;100476.06;4883711;29;45509;-64
2022/09/26 06:16:07;;;;;;;;;1.00;1.00;;;;;15.44;54.62;100479.69;4899537;28;45331;-64
2022/09/26 06:18:36;;;;;;;;;3.75;2.00;;;;;15.34;54.83;100465.91;4899655;28;48285;-64
2022/09/26 06:21:06;;;;;;;;;1.50;1.50;;;;;15.45;54.64;100478.75;4881767;29;45408;-64
2022/09/26 06:23:33;;;;;;;;;1.75;1.75;;;;;15.36;54.60;100458.59;4882750;29;45356;-64
2022/09/26 06:25:59;;;;;;;;;1.50;1.50;;;;;15.35;54.94;100464.06;4884580;29;45347;-64
2022/09/26 06:28:25;;;;;;;;;1.25;1.00;;;;;15.44;54.68;100477.00;4884665;29;45916;-64
2022/09/26 06:30:52;;;;;;;;;1.50;1.50;;;;;15.36;54.94;100460.44;4894627;28;45553;-69
2022/09/26 06:33:18;;;;;;;;;1.00;1.00;;;;;15.28;54.93;100451.94;4875255;29;45359;-69
2022/09/26 06:35:43;;;;;;;;;2.50;2.00;;;;;15.24;55.41;100442.31;4881470;29;45550;-69
2022/09/26 06:38:08;;;;;;;;;1.00;1.00;;;;;15.14;54.83;100426.69;4878136;29;46145;-71
2022/09/26 06:40:45;;;;;;;;;2.00;1.00;;;;;15.22;55.10;100428.97;4883063;29;45290;-70
2022/09/26 06:43:10;;;;;;;;;1.50;1.50;;;;;15.12;55.08;100409.78;4883533;29;45334;-71
2022/09/26 06:45:36;;;;;;;;;1.00;1.00;;;;;15.26;54.73;100429.63;4887114;29;45576;-70
2022/09/26 06:48:02;;;;;;;;;1.25;1.25;;;;;15.30;54.65;100428.50;4886623;29;46379;-71
2022/09/26 06:50:27;;;;;;;;;1.00;1.00;;;;;15.29;54.71;100419.56;4879803;29;45619;-71
2022/09/26 06:52:52;;;;;;;;;1.00;1.00;;;;;15.31;54.94;100432.94;4884267;29;45488;-71
2022/09/26 06:55:18;;;;;;;;;1.50;1.00;;;;;15.29;55.10;100416.88;4884521;29;45541;-71
2022/09/26 06:57:43;;;;;;;;;4.00;1.00;;;;;15.25;54.96;100409.06;4885919;29;45375;-71
2022/09/26 07:00:12;;;;;;;;;1.50;1.50;;;;;15.31;54.82;100408.72;4874568;29;45469;-72
2022/09/26 07:02:39;;;;;;;;;0.25;0.25;;;;;15.24;55.20;100405.53;4898150;29;46708;-71
2022/09/26 07:05:05;;;;;;;;;0.25;0.00;;;;;15.32;54.93;100416.72;4882805;29;45522;-72
2022/09/26 07:07:38;;;;;;;;;0.00;0.00;;;;;15.28;55.22;100408.91;4882401;29;47235;-71
2022/09/26 07:10:04;;;;;;;;;2.75;1.00;;;;;15.24;55.05;100397.47;4884165;29;45719;-71
2022/09/26 07:12:30;;;;;;;;;1.00;1.00;;;;;15.25;54.94;100393.81;4882025;29;45320;-71
2022/09/26 07:14:56;;;;;;;;;1.75;1.75;;;;;15.42;55.06;100414.38;4883543;29;45364;-70
2022/09/26 07:17:22;;;;;;;;;3.00;1.25;;;;;15.46;55.28;100420.44;4876071;29;46590;-71
2022/09/26 07:19:51;;;;;;;;;1.75;1.00;;;;;15.38;54.96;100397.53;4888591;28;45731;-71
2022/09/26 07:22:17;;;;;;;;;1.00;1.00;;;;;15.29;54.93;100375.69;4878542;29;45653;-69
2022/09/26 07:24:45;;;;;;;;;1.75;1.00;;;;;15.26;54.97;100365.97;4878319;29;45882;-68
2022/09/26 07:27:21;;;;;;;;;3.00;3.00;;;;;15.22;55.24;100355.47;5061208;28;45639;-68
2022/09/26 07:29:47;;;;;;;;;1.25;1.25;;;;;15.36;54.70;100380.59;5050252;28;45508;-68
2022/09/26 07:32:13;;;;;;;;;1.00;1.00;;;;;15.32;54.51;100367.44;5040360;28;45422;-68
2022/09/26 07:34:39;;;;;;;;;1.00;1.00;;;;;15.22;54.76;100333.97;5047501;28;45276;-68
2022/09/26 07:37:06;;;;;;;;;1.25;1.25;;;;;15.32;55.20;100341.41;5043153;28;45550;-68
2022/09/26 07:39:31;;;;;;;;;4.00;1.50;;;;;15.32;54.80;100335.19;5041784;28;45713;-67
2022/09/26 07:41:59;;;;;;;;;3.75;1.00;;;;;15.37;55.04;100342.00;5049015;28;45391;-68
2022/09/26 07:44:24;;;;;;;;;1.50;1.00;;;;;15.42;54.98;100336.38;5039592;28;45483;-68
2022/09/26 07:52:19;;;;;;;;;3.00;1.00;;;;;15.31;54.59;100310.09;5046566;28;45513;-67
2022/09/26 07:54:44;;;;;;;;;0.25;0.25;;;;;15.34;54.65;100317.13;5040594;28;45462;-68
2022/09/26 07:57:10;;;;;;;;;2.00;2.00;;;;;15.53;54.66;100341.94;5053045;28;46979;-68
2022/09/26 07:59:36;;;;;;;;;0.75;0.75;;;;;15.33;54.54;100307.31;5046137;28;45541;-68
2022/09/26 08:02:02;;;;;;;;;1.00;1.00;;;;;15.51;54.41;100329.56;5050495;28;45328;-68
2022/09/26 08:04:28;;;;;;;;;3.00;2.00;;;;;15.28;54.48;100282.53;5033774;28;45421;-68
2022/09/26 08:06:56;;;;;;;;;2.50;1.00;;;;;15.41;54.60;100313.09;5033610;28;46200;-68
2022/09/26 08:09:21;;;;;;;;;1.00;1.00;;;;;15.34;55.04;100304.53;5038820;28;45378;-68
2022/09/26 08:11:46;;;;;;;;;2.75;1.00;;;;;15.53;54.78;100333.88;5040551;28;45418;-68
2022/09/26 08:14:12;;;;;;;;;0.00;0.00;;;;;15.18;54.65;100274.13;5052000;28;45489;-68
2022/09/26 08:16:40;;;;;;;;;2.00;2.00;;;;;15.25;54.78;100288.06;5040565;28;45524;-67
2022/09/26 08:19:07;;;;;;;;;1.00;1.00;;;;;15.32;54.89;100287.63;5036506;28;45622;-68
2022/09/26 08:21:33;;;;;;;;;1.00;1.00;;;;;15.37;54.68;100282.00;5037457;28;45671;-68
2022/09/26 08:23:59;;;;;;;;;2.00;1.00;;;;;15.47;54.91;100296.63;5042241;28;45897;-67
2022/09/26 08:26:24;;;;;;;;;3.25;2.00;;;;;15.57;54.67;100303.16;5042436;28;45855;-68
2022/09/26 08:28:50;;;;;;;;;1.25;1.25;;;;;15.39;54.76;100269.31;5033164;28;45373;-68
2022/09/26 08:31:16;;;;;;;;;1.00;1.00;;;;;15.38;54.59;100275.63;5039435;28;45675;-68
2022/09/26 08:33:43;;;;;;;;;5.00;1.00;;;;;15.42;54.59;100274.50;5037855;28;45747;-68
2022/09/26 08:36:10;;;;;;;;;2.00;0.75;;;;;15.41;54.61;100264.69;5036083;28;46149;-68
2022/09/26 08:38:37;;;;;;;;;1.00;1.00;;;;;15.43;54.89;100262.78;5035796;28;45710;-68
2022/09/26 08:41:15;;;;;;;;;4.00;2.00;;;;;15.66;54.53;100290.97;5021279;28;45549;-67
2022/09/26 08:43:50;;;;;;;;;2.25;2.25;;;;;15.69;54.64;100277.34;5029752;28;45571;-68
2022/09/26 08:46:57;;;;;;;;;4.00;1.00;;;;;15.46;54.87;100235.69;5026175;28;46591;-69
2022/09/26 08:49:55;;;;;;;;;2.00;2.00;;;;;15.72;54.55;100277.16;5018687;28;45708;-69
2022/09/26 08:52:39;;;;;;;;;1.00;1.00;;;;;15.54;54.60;100236.09;5026753;28;45561;-68
2022/09/26 08:55:12;;;;;;;;;3.00;2.75;;;;;15.63;54.93;100239.19;5025555;28;45446;-68
2022/09/26 08:57:42;;;;;;;;;4.00;2.00;;;;;15.79;54.40;100260.69;5019847;28;45462;-68
2022/09/26 09:00:17;;;;;;;;;2.25;1.50;;;;;15.74;54.69;100240.25;5027982;28;45680;-69
2022/09/26 09:03:04;;;;;;;;;1.00;1.00;;;;;15.85;54.90;100252.19;5031735;28;45649;-68
2022/09/26 09:05:34;;;;;;;;;1.75;1.75;;;;;15.85;54.38;100241.44;5034281;28;45940;-68
2022/09/26 09:08:06;;;;;;;;;1.50;1.00;;;;;15.78;54.40;100222.13;5022158;28;46316;-68
2022/09/26 09:10:49;;;;;;;;;3.50;2.00;;;;;15.91;54.33;100233.84;5039408;28;45459;-68
2022/09/26 09:13:35;;;;;;;;;3.00;2.00;;;;;15.76;54.18;100193.59;5035281;28;45448;-68
2022/09/26 09:16:58;;;;;;;;;2.00;2.00;;;;;16.01;53.86;100217.13;5027598;28;45485;-68
2022/09/26 09:19:39;;;;;;;;;2.50;1.00;;;;;16.03;54.00;100225.97;5027545;28;45577;-68
2022/09/26 09:22:35;;;;;;;;;2.00;1.00;;;;;16.03;53.58;100213.34;5029503;28;45418;-68
2022/09/26 09:25:31;;;;;;;;;2.00;1.00;;;;;16.06;53.90;100201.53;5031590;28;45547;-68
2022/09/26 09:28:18;;;;;;;;;0.75;0.50;;;;;16.09;53.68;100204.03;5023286;28;45276;-68
2022/09/26 09:30:59;;;;;;;;;1.00;1.00;;;;;16.05;53.56;100178.25;5025508;28;46475;-68
2022/09/26 09:33:30;;;;;;;;;3.00;2.00;;;;;15.98;53.62;100163.47;5031362;28;45750;-69
2022/09/26 09:36:04;;;;;;;;;2.00;2.00;;;;;16.00;53.26;100154.31;5026145;28;45514;-69
2022/09/26 09:38:32;;;;;;;;;1.25;1.25;;;;;16.00;53.24;100148.09;5018938;28;45473;-71
2022/09/26 09:41:33;;;;;;;;;3.00;1.00;;;;;16.27;53.34;100167.84;5018401;28;45481;-68
2022/09/26 09:44:03;;;;;;;;;1.00;1.00;;;;;16.31;53.10;100165.81;5017882;28;45683;-68
2022/09/26 09:46:34;;;;;;;;;1.50;1.00;;;;;16.19;53.13;100145.06;5029598;28;45479;-69
2022/09/26 09:49:08;;;;;;;;;3.75;2.00;;;;;16.37;52.96;100164.53;5027170;28;45427;-68
2022/09/26 09:51:56;;;;;;;;;2.00;2.00;;;;;16.38;52.70;100158.19;5033824;28;45447;-68
2022/09/26 09:54:36;;;;;;;;;3.00;1.00;;;;;16.19;52.28;100120.81;5023471;28;45597;-68
2022/09/26 09:57:22;;;;;;;;;0.75;0.75;;;;;16.41;52.35;100148.06;5024934;28;45407;-69
2022/09/26 10:00:09;;;;;;;;;1.00;1.00;;;;;16.44;52.31;100142.50;5021067;28;45687;-68
2022/09/26 10:03:00;;;;;;;;;3.00;1.25;;;;;16.51;51.94;100145.66;5024234;28;46345;-69
2022/09/26 10:05:47;;;;;;;;;1.00;1.00;;;;;16.32;52.13;100113.66;5028315;28;45689;-68
2022/09/26 10:08:19;;;;;;;;;1.00;1.00;;;;;16.37;52.20;100110.66;5030138;28;45445;-68
2022/09/26 10:10:50;;;;;;;;;2.00;1.00;;;;;16.51;52.16;100121.41;5023378;28;45398;-69
2022/09/26 10:13:16;;;;;;;;;2.00;1.00;;;;;16.32;52.09;100084.03;5029370;28;45726;-71
2022/09/26 10:15:56;;;;;;;;;2.00;1.50;;;;;16.55;51.83;100111.28;5032181;28;45503;-69
2022/09/26 10:18:21;;;;;;;;;1.25;1.00;;;;;16.39;51.75;100082.69;5028070;28;45408;-69
2022/09/26 10:21:05;;;;;;;;;1.00;1.00;;;;;16.33;51.82;100068.75;5031671;28;45789;-69
2022/09/26 10:23:38;;;;;;;;;2.50;1.00;;;;;16.41;52.00;100077.19;5031855;28;46456;-69
2022/09/26 10:26:07;;;;;;;;;2.00;2.00;;;;;16.46;52.00;100080.44;5030572;28;45639;-68
2022/09/26 10:28:36;;;;;;;;;1.00;1.00;;;;;16.57;52.08;100091.34;5033145;28;45408;-69
2022/09/26 10:31:07;;;;;;;;;1.00;1.00;;;;;16.35;52.16;100040.75;5027715;28;45528;-68
2022/09/26 10:33:35;;;;;;;;;1.00;1.00;;;;;16.35;52.22;100038.06;5036949;28;45366;-69
2022/09/26 10:36:09;;;;;;;;;1.75;1.75;;;;;16.40;52.41;100043.13;5034581;28;45683;-69
2022/09/26 10:40:43;;;;;;;;;1.00;1.00;;;;;16.30;52.12;100016.84;5034498;28;45477;-69
2022/09/26 10:41:39;;;;;;;;;1.00;1.00;;;;;16.46;52.46;100040.88;5029170;28;45722;-68
2022/09/26 10:44:06;;;;;;;;;1.50;1.50;;;;;16.50;52.96;100049.63;5021339;28;45509;-68
2022/09/26 10:46:32;;;;;;;;;1.50;1.50;;;;;16.53;52.96;100043.16;5032485;28;45558;-69
2022/09/26 10:49:01;;;;;;;;;2.00;2.00;;;;;16.29;52.94;100001.63;5032218;28;45638;-69
2022/09/26 10:51:35;;;;;;;;;1.00;1.00;;;;;16.24;53.02;100000.22;5031890;28;45486;-68
2022/09/26 10:54:15;;;;;;;;;1.50;1.00;;;;;16.44;52.78;100039.28;5028486;28;46362;-68
2022/09/26 10:56:44;;;;;;;;;0.75;0.50;;;;;16.30;53.05;100007.88;5023108;28;45330;-68
2022/09/26 10:59:14;;;;;;;;;1.50;1.50;;;;;16.41;53.17;100036.78;5024834;28;45655;-63
2022/09/26 11:01:49;;;;;;;;;1.00;0.00;;;;;16.40;53.38;100019.75;5030834;28;45537;-64
2022/09/26 11:04:14;;;;;;;;;1.00;1.00;;;;;16.41;53.58;100031.41;5037193;28;45409;-64
2022/09/26 11:06:46;;;;;;;;;2.00;1.00;;;;;16.38;53.53;100015.44;5027124;28;45763;-63
2022/09/26 11:09:19;;;;;;;;;2.00;1.75;;;;;16.38;53.84;100018.13;5032262;28;45344;-63
2022/09/26 11:11:49;;;;;;;;;1.00;1.00;;;;;16.39;54.75;100018.03;5029939;28;45505;-63
2022/09/26 11:14:27;;;;;;;;;1.25;1.00;;;;;16.38;54.65;100008.22;5030932;28;45673;-63
2022/09/26 11:16:55;;;;;;;;;1.75;1.00;;;;;16.38;55.16;99996.59;5027671;28;45820;-65
2022/09/26 11:19:27;;;;;;;;;1.00;1.00;;;;;16.27;55.34;99983.84;5029614;28;45476;-65
2022/09/26 11:22:01;;;;;;;;;1.00;1.00;;;;;16.33;56.10;99996.03;5025031;28;45368;-65
2022/09/26 11:24:36;;;;;;;;;2.75;0.75;;;;;16.32;55.90;99988.91;5021202;28;45688;-65
2022/09/26 11:27:18;;;;;;;;;1.00;1.00;;;;;16.26;56.60;99983.00;5017506;28;45572;-64
2022/09/26 11:30:00;;;;;;;;;1.00;1.00;;;;;16.25;57.07;99981.25;5022348;28;45391;-65
2022/09/26 11:32:31;;;;;;;;;1.00;1.00;;;;;16.21;57.54;99982.44;5032223;28;45492;-63
2022/09/26 11:35:01;;;;;;;;;3.25;2.00;;;;;16.07;58.01;99960.97;5021346;28;46958;-64
2022/09/26 11:37:29;;;;;;;;;1.00;1.00;;;;;16.16;58.16;99987.28;5027452;28;45780;-66
2022/09/26 11:40:12;;;;;;;;;1.00;1.00;;;;;16.06;58.24;99961.94;5018769;28;45623;-66
2022/09/26 11:42:57;;;;;;;;;1.00;1.00;;;;;16.10;58.86;99963.44;5028204;28;45603;-65
2022/09/26 11:46:02;;;;;;;;;1.75;0.75;;;;;16.01;59.49;99964.09;5021125;28;45654;-66
2022/09/26 11:48:37;;;;;;;;;1.00;1.00;;;;;15.98;60.25;99951.69;5020443;28;45785;-65
2022/09/26 11:51:14;;;;;;;;;2.00;1.00;;;;;15.95;60.73;99945.66;5022280;28;45511;-65
2022/09/26 11:53:52;;;;;;;;;4.00;2.00;;;;;15.90;61.10;99941.47;5030415;28;45797;-65
2022/09/26 11:56:42;;;;;;;;;3.00;1.75;;;;;15.85;60.80;99930.13;5024576;28;45670;-65